Time;durP1;ratioP1;P1;durP2;ratioP2;P2;SDS_P1;SDS_P2;PMS_P1;PMS_P2;Temp;Humidity;BMP_temperature;BMP_pressure;BME280_temperature;BME280_humidity;BME280_pressure;Samples;Min_cycle;Max_cycle;Signal;HPM_P1;HPM_P2
2024/01/12 00:00:08;;;;;;;24.90;14.55;;;;;-3.10;99772.00;;;;5071146;28;20123;-70
2024/01/12 00:02:38;;;;;;;29.48;14.30;;;;;-3.10;99781.00;;;;5072954;28;20064;-69
2024/01/12 00:05:07;;;;;;;30.70;15.65;;;;;-3.20;99776.00;;;;5073760;28;20047;-69
2024/01/12 00:07:33;;;;;;;29.95;15.23;;;;;-3.10;99774.00;;;;5070999;28;20045;-69
2024/01/12 00:10:00;;;;;;;28.20;14.35;;;;;-3.10;99786.00;;;;5071129;28;20048;-70
2024/01/12 00:12:27;;;;;;;28.38;14.82;;;;;-3.10;99788.00;;;;5072392;28;20493;-70
2024/01/12 00:14:53;;;;;;;30.00;14.95;;;;;-3.20;99775.00;;;;5070374;28;20048;-70
2024/01/12 00:17:20;;;;;;;29.92;15.18;;;;;-3.30;99794.00;;;;5072392;28;20436;-70
2024/01/12 00:19:47;;;;;;;31.20;16.45;;;;;-3.40;99781.00;;;;5072273;28;20144;-70
2024/01/12 00:22:14;;;;;;;35.30;17.38;;;;;-3.60;99788.00;;;;5070940;28;20458;-70
2024/01/12 00:24:40;;;;;;;29.63;16.02;;;;;-3.60;99788.00;;;;5071612;28;20044;-70
2024/01/12 00:27:08;;;;;;;31.20;15.90;;;;;-3.60;99781.00;;;;5070558;28;20048;-70
2024/01/12 00:29:34;;;;;;;34.03;19.15;;;;;-3.60;99783.00;;;;5071868;28;20532;-70
2024/01/12 00:32:01;;;;;;;30.63;15.68;;;;;-3.60;99776.00;;;;5071435;28;20048;-70
2024/01/12 00:34:27;;;;;;;30.35;15.98;;;;;-3.50;99775.00;;;;5074526;28;20075;-70
2024/01/12 00:36:54;;;;;;;29.98;15.60;;;;;-3.50;99790.00;;;;5074928;28;20098;-70
2024/01/12 00:39:21;;;;;;;28.95;15.02;;;;;-3.50;99788.00;;;;5075028;28;20048;-70
2024/01/12 00:41:50;;;;;;;32.80;15.18;;;;;-3.50;99786.00;;;;5075011;28;20076;-70
2024/01/12 00:44:21;;;;;;;27.95;15.70;;;;;-3.40;99783.00;;;;5074092;28;20083;-70
2024/01/12 00:46:50;;;;;;;31.30;15.43;;;;;-3.30;99790.00;;;;5076011;28;20049;-69
2024/01/12 00:49:18;;;;;;;31.95;15.27;;;;;-3.20;99798.00;;;;5075744;28;20040;-70
2024/01/12 00:51:45;;;;;;;30.52;15.60;;;;;-3.20;99786.00;;;;5074400;28;20094;-70
2024/01/12 00:54:12;;;;;;;26.90;14.60;;;;;-3.20;99795.00;;;;5075017;28;20429;-69
2024/01/12 00:56:39;;;;;;;27.63;15.27;;;;;-3.10;99790.00;;;;5075618;28;20051;-69
2024/01/12 00:59:06;;;;;;;27.63;14.93;;;;;-3.00;99787.00;;;;5075501;28;20590;-70
2024/01/12 01:01:34;;;;;;;28.40;15.02;;;;;-3.00;99789.00;;;;5075374;28;20040;-70
2024/01/12 01:04:01;;;;;;;25.33;14.63;;;;;-3.10;99786.00;;;;5074905;28;20045;-69
2024/01/12 01:06:28;;;;;;;33.83;17.23;;;;;-3.10;99785.00;;;;5075646;28;20061;-70
2024/01/12 01:08:55;;;;;;;27.38;15.05;;;;;-3.20;99780.00;;;;5075160;28;20059;-70
2024/01/12 01:11:22;;;;;;;29.90;15.52;;;;;-3.40;99795.00;;;;5075220;28;20472;-70
2024/01/12 01:13:49;;;;;;;29.60;16.70;;;;;-3.50;99783.00;;;;5073770;28;20063;-71
2024/01/12 01:16:16;;;;;;;30.90;16.45;;;;;-3.40;99794.00;;;;5075650;28;20040;-70
2024/01/12 01:18:42;;;;;;;36.15;17.23;;;;;-3.40;99796.00;;;;5074136;28;20047;-70
2024/01/12 01:21:09;;;;;;;31.65;17.55;;;;;-3.50;99788.00;;;;5074422;28;20452;-71
2024/01/12 01:23:36;;;;;;;33.47;17.02;;;;;-3.60;99790.00;;;;5074845;28;20044;-70
2024/01/12 01:26:03;;;;;;;29.05;15.48;;;;;-3.70;99797.00;;;;5073867;28;20045;-70
2024/01/12 01:28:29;;;;;;;32.35;15.35;;;;;-3.80;99809.00;;;;5073633;28;20072;-70
2024/01/12 01:30:56;;;;;;;28.13;15.50;;;;;-3.70;99803.00;;;;5073713;28;20042;-70
2024/01/12 01:33:23;;;;;;;31.85;16.80;;;;;-3.70;99806.00;;;;5073355;28;20477;-71
2024/01/12 01:35:49;;;;;;;36.97;19.52;;;;;-3.70;99818.00;;;;5072419;28;20078;-70
2024/01/12 01:38:16;;;;;;;38.80;20.40;;;;;-3.70;99809.00;;;;5072615;28;20056;-70
2024/01/12 01:40:43;;;;;;;39.65;20.85;;;;;-3.70;99811.00;;;;5072716;28;20489;-70
2024/01/12 01:43:11;;;;;;;37.85;18.08;;;;;-3.70;99839.00;;;;5072175;28;20078;-70
2024/01/12 01:45:38;;;;;;;29.35;14.90;;;;;-3.80;99833.00;;;;5073125;28;20470;-71
2024/01/12 01:48:08;;;;;;;28.60;15.43;;;;;-3.70;99832.00;;;;5073547;28;20051;-70
2024/01/12 01:50:36;;;;;;;33.53;17.10;;;;;-3.60;99830.00;;;;5072393;28;20520;-70
2024/01/12 01:53:04;;;;;;;29.55;15.90;;;;;-3.40;99827.00;;;;5073376;28;20047;-70
2024/01/12 01:55:31;;;;;;;27.10;15.43;;;;;-3.20;99825.00;;;;5072939;28;20090;-70
2024/01/12 01:58:00;;;;;;;28.08;15.65;;;;;-3.10;99829.00;;;;5073309;28;20055;-69
2024/01/12 02:00:28;;;;;;;24.00;14.93;;;;;-2.90;99835.00;;;;5073330;28;20041;-69
2024/01/12 02:02:55;;;;;;;31.40;15.30;;;;;-2.80;99828.00;;;;5073031;28;20493;-69
2024/01/12 02:05:22;;;;;;;35.83;16.70;;;;;-2.90;99828.00;;;;5072400;28;20505;-70
2024/01/12 02:07:48;;;;;;;27.95;15.38;;;;;-3.10;99828.00;;;;5071937;28;20094;-69
2024/01/12 02:10:15;;;;;;;29.73;16.80;;;;;-3.00;99826.00;;;;5071492;28;20486;-69
2024/01/12 02:12:42;;;;;;;32.63;15.32;;;;;-3.00;99826.00;;;;5073086;28;20033;-69
2024/01/12 02:15:09;;;;;;;30.63;16.50;;;;;-2.90;99841.00;;;;5072500;28;20068;-70
2024/01/12 02:17:36;;;;;;;30.40;15.90;;;;;-3.10;99828.00;;;;5071703;28;20585;-69
2024/01/12 02:20:03;;;;;;;30.40;16.15;;;;;-2.90;99835.00;;;;5071785;28;20454;-70
2024/01/12 02:22:30;;;;;;;28.77;16.52;;;;;-2.70;99840.00;;;;5073100;28;20056;-70
2024/01/12 02:24:57;;;;;;;30.17;15.07;;;;;-2.60;99829.00;;;;5036216;28;1046317;-70
2024/01/12 02:27:24;;;;;;;25.92;15.02;;;;;-2.50;99834.00;;;;5073748;28;20058;-70
2024/01/12 02:29:51;;;;;;;28.92;15.60;;;;;-2.60;99834.00;;;;5074064;28;20049;-70
2024/01/12 02:32:18;;;;;;;25.98;15.50;;;;;-2.60;99838.00;;;;5075598;28;20075;-69
2024/01/12 02:34:45;;;;;;;34.38;16.00;;;;;-2.50;99839.00;;;;5075349;28;20057;-69
2024/01/12 02:37:12;;;;;;;32.33;17.05;;;;;-2.50;99843.00;;;;5078675;28;20100;-69
2024/01/12 02:39:38;;;;;;;28.10;17.17;;;;;-2.40;99828.00;;;;5077965;28;20444;-69
2024/01/12 02:42:05;;;;;;;32.80;16.13;;;;;-2.30;99824.00;;;;5079757;28;20049;-69
2024/01/12 02:44:31;;;;;;;27.25;15.40;;;;;-2.10;99819.00;;;;5079788;28;20067;-69
2024/01/12 02:46:58;;;;;;;29.05;16.48;;;;;-2.10;99820.00;;;;5081765;28;20405;-69
2024/01/12 02:49:24;;;;;;;29.20;16.45;;;;;-2.10;99804.00;;;;5083822;28;20096;-69
2024/01/12 02:51:51;;;;;;;31.38;15.82;;;;;-2.10;99805.00;;;;5083197;28;20530;-69
2024/01/12 02:54:18;;;;;;;31.48;16.00;;;;;-2.10;99801.00;;;;5082072;28;20378;-70
2024/01/12 02:56:44;;;;;;;27.65;15.50;;;;;-2.00;99801.00;;;;5083649;28;20050;-69
2024/01/12 02:59:11;;;;;;;29.98;14.98;;;;;-2.00;99800.00;;;;5073357;28;20044;-69
2024/01/12 03:01:37;;;;;;;34.53;15.27;;;;;-2.00;99803.00;;;;5073491;28;20067;-70
2024/01/12 03:04:04;;;;;;;32.08;16.08;;;;;-2.00;99803.00;;;;5073085;28;20124;-70
2024/01/12 03:06:31;;;;;;;28.40;15.32;;;;;-1.90;99800.00;;;;5073297;28;20051;-71
2024/01/12 03:08:58;;;;;;;30.73;16.88;;;;;-1.80;99797.00;;;;5072082;28;20525;-70
2024/01/12 03:11:24;;;;;;;30.25;16.23;;;;;-1.80;99792.00;;;;5056072;28;20048;-70
2024/01/12 03:13:51;;;;;;;30.38;17.38;;;;;-1.80;99799.00;;;;5073502;28;20064;-70
2024/01/12 03:16:19;;;;;;;34.65;18.05;;;;;-1.70;99792.00;;;;5073715;28;20052;-70
2024/01/12 03:18:49;;;;;;;35.38;18.17;;;;;-1.60;99790.00;;;;5072443;28;20052;-70
2024/01/12 03:21:17;;;;;;;29.90;16.77;;;;;-1.60;99788.00;;;;5073598;28;20067;-70
2024/01/12 03:23:44;;;;;;;34.55;17.70;;;;;-1.50;99785.00;;;;5073214;28;20691;-70
2024/01/12 03:26:10;;;;;;;35.55;17.38;;;;;-1.40;99788.00;;;;5071724;28;20071;-70
2024/01/12 03:28:37;;;;;;;32.25;17.73;;;;;-1.30;99798.00;;;;5072849;28;20041;-71
2024/01/12 03:31:04;;;;;;;37.22;18.08;;;;;-1.40;99796.00;;;;5072586;28;20052;-70
2024/01/12 03:33:30;;;;;;;31.67;16.70;;;;;-1.40;99784.00;;;;5071053;28;20044;-70
2024/01/12 03:35:57;;;;;;;33.28;17.27;;;;;-1.50;99782.00;;;;5072865;28;20040;-70
2024/01/12 03:38:24;;;;;;;33.90;17.52;;;;;-1.70;99791.00;;;;5072506;28;20098;-70
2024/01/12 03:40:51;;;;;;;29.65;17.25;;;;;-1.70;99782.00;;;;5072619;28;20047;-70
2024/01/12 03:43:18;;;;;;;32.03;17.33;;;;;-1.70;99787.00;;;;5072326;28;20551;-70
2024/01/12 03:45:44;;;;;;;26.83;16.00;;;;;-1.70;99778.00;;;;5072254;28;20098;-70
2024/01/12 03:48:11;;;;;;;38.67;19.35;;;;;-1.50;99781.00;;;;5071068;28;20518;-68
2024/01/12 03:50:38;;;;;;;31.05;17.77;;;;;-1.30;99784.00;;;;5072354;28;20555;-67
2024/01/12 03:53:05;;;;;;;33.55;18.02;;;;;-1.20;99775.00;;;;5072321;28;20113;-68
2024/01/12 03:55:32;;;;;;;37.55;19.50;;;;;-1.10;99779.00;;;;5070985;28;20553;-68
2024/01/12 03:57:59;;;;;;;32.22;17.55;;;;;-1.00;99785.00;;;;5054423;28;20044;-69
2024/01/12 04:00:25;;;;;;;30.75;18.05;;;;;-1.00;99787.00;;;;5072131;28;20132;-68
2024/01/12 04:02:52;;;;;;;33.40;17.85;;;;;-0.90;99786.00;;;;5072214;28;20032;-69
2024/01/12 04:05:19;;;;;;;33.78;18.52;;;;;-0.90;99797.00;;;;5071909;28;20045;-68
2024/01/12 04:07:46;;;;;;;29.58;17.83;;;;;-0.90;99787.00;;;;5071936;28;20123;-69
2024/01/12 04:10:12;;;;;;;35.88;19.20;;;;;-0.80;99785.00;;;;5072091;28;20037;-69
2024/01/12 04:12:39;;;;;;;33.10;18.23;;;;;-0.80;99780.00;;;;5054073;28;20045;-69
2024/01/12 04:15:07;;;;;;;35.30;19.27;;;;;-0.80;99788.00;;;;5071699;28;20551;-69
2024/01/12 04:17:34;;;;;;;29.80;17.70;;;;;-0.70;99788.00;;;;5072339;28;20079;-69
2024/01/12 04:20:02;;;;;;;32.85;18.27;;;;;-0.70;99801.00;;;;5071954;28;20555;-69
2024/01/12 04:22:29;;;;;;;35.47;18.95;;;;;-0.70;99789.00;;;;5071940;28;20041;-69
2024/01/12 04:24:56;;;;;;;39.60;19.33;;;;;-0.60;99792.00;;;;5070134;28;20044;-69
2024/01/12 04:27:25;;;;;;;34.10;19.67;;;;;-0.60;99794.00;;;;5070773;28;20076;-69
2024/01/12 04:29:51;;;;;;;38.00;19.27;;;;;-0.50;99788.00;;;;5070601;28;20086;-69
2024/01/12 04:32:18;;;;;;;36.10;21.00;;;;;-0.50;99783.00;;;;5071797;28;20090;-69
2024/01/12 04:34:45;;;;;;;36.13;19.42;;;;;-0.40;99785.00;;;;5071524;28;20040;-69
2024/01/12 04:37:11;;;;;;;37.22;19.83;;;;;-0.40;99789.00;;;;5070954;28;20040;-69
2024/01/12 04:39:40;;;;;;;36.30;19.80;;;;;-0.50;99791.00;;;;5072217;28;20047;-69
2024/01/12 04:42:07;;;;;;;35.20;19.75;;;;;-0.50;99798.00;;;;5070543;28;20139;-69
2024/01/12 04:44:34;;;;;;;40.88;20.73;;;;;-0.50;99797.00;;;;5071493;28;20063;-69
2024/01/12 04:47:00;;;;;;;39.53;20.42;;;;;-0.40;99812.00;;;;5070531;28;20052;-69
2024/01/12 04:49:27;;;;;;;37.60;19.67;;;;;-0.40;99796.00;;;;5071852;28;20127;-69
2024/01/12 04:51:53;;;;;;;39.97;20.67;;;;;-0.40;99793.00;;;;5070426;28;20045;-69
2024/01/12 04:54:20;;;;;;;34.85;19.60;;;;;-0.30;99789.00;;;;5071196;28;20049;-69
2024/01/12 04:56:46;;;;;;;35.65;20.02;;;;;-0.30;99788.00;;;;5071461;28;20203;-69
2024/01/12 04:59:13;;;;;;;38.40;19.75;;;;;-0.30;99788.00;;;;5070196;28;20056;-69
2024/01/12 05:01:39;;;;;;;37.17;20.08;;;;;-0.20;99790.00;;;;5070187;28;20143;-69
2024/01/12 05:04:06;;;;;;;37.97;20.05;;;;;-0.20;99788.00;;;;5071403;28;20072;-69
2024/01/12 05:06:33;;;;;;;34.35;19.67;;;;;-0.20;99788.00;;;;5071403;28;20048;-69
2024/01/12 05:08:59;;;;;;;40.33;20.75;;;;;-0.20;99789.00;;;;5071458;28;20417;-69
2024/01/12 05:11:27;;;;;;;39.92;21.20;;;;;-0.20;99790.00;;;;5070325;28;20123;-70
2024/01/12 05:13:54;;;;;;;33.80;20.15;;;;;-0.30;99809.00;;;;5071163;28;20044;-70
2024/01/12 05:16:21;;;;;;;39.03;20.17;;;;;-0.40;99798.00;;;;5071424;28;20506;-70
2024/01/12 05:18:47;;;;;;;43.33;21.23;;;;;-0.40;99799.00;;;;5073332;28;20048;-70
2024/01/12 05:21:14;;;;;;;39.80;21.17;;;;;-0.40;99798.00;;;;5075123;28;20469;-70
2024/01/12 05:23:44;;;;;;;36.50;19.75;;;;;-0.40;99810.00;;;;5074749;28;20044;-70
2024/01/12 05:26:14;;;;;;;34.67;19.25;;;;;-0.30;99808.00;;;;5073810;28;20139;-70
2024/01/12 05:28:41;;;;;;;35.78;20.45;;;;;-0.30;99806.00;;;;5075305;28;20047;-70
2024/01/12 05:31:10;;;;;;;38.58;20.40;;;;;-0.20;99812.00;;;;5075089;28;20059;-69
2024/01/12 05:33:37;;;;;;;38.30;21.60;;;;;-0.10;99803.00;;;;5074623;28;20037;-70
2024/01/12 05:36:04;;;;;;;40.65;20.80;;;;;0.00;99802.00;;;;5075010;28;20041;-70
2024/01/12 05:38:31;;;;;;;36.30;19.67;;;;;0.00;99805.00;;;;5075249;28;20090;-70
2024/01/12 05:40:58;;;;;;;35.47;20.38;;;;;0.10;99806.00;;;;5074754;28;20044;-70
2024/01/12 05:43:24;;;;;;;39.83;20.67;;;;;0.00;99796.00;;;;5074430;28;20049;-70
2024/01/12 05:45:51;;;;;;;39.50;20.58;;;;;0.00;99788.00;;;;5074812;28;20048;-70
2024/01/12 05:48:17;;;;;;;38.15;21.05;;;;;-0.10;99799.00;;;;5073794;28;20468;-69
2024/01/12 05:50:44;;;;;;;38.22;21.35;;;;;-0.10;99801.00;;;;5074760;28;20456;-69
2024/01/12 05:53:11;;;;;;;35.08;19.80;;;;;-0.10;99803.00;;;;5074528;28;20432;-69
2024/01/12 05:55:37;;;;;;;37.13;19.92;;;;;-0.20;99804.00;;;;5072587;28;20139;-70
2024/01/12 05:58:04;;;;;;;38.40;21.77;;;;;-0.20;99811.00;;;;5074388;28;20049;-69
2024/01/12 06:00:30;;;;;;;36.60;20.52;;;;;-0.20;99818.00;;;;5075050;28;20497;-70
2024/01/12 06:02:57;;;;;;;39.28;21.67;;;;;-0.10;99810.00;;;;5074510;28;20485;-70
2024/01/12 06:05:24;;;;;;;36.03;19.75;;;;;0.00;99821.00;;;;5073984;28;20090;-69
2024/01/12 06:07:51;;;;;;;39.45;22.08;;;;;0.00;99806.00;;;;5074335;28;20106;-70
2024/01/12 06:10:17;;;;;;;39.55;20.63;;;;;0.00;99802.00;;;;5074422;28;20044;-70
2024/01/12 06:12:44;;;;;;;41.42;21.67;;;;;0.00;99788.00;;;;5073261;28;20048;-69
2024/01/12 06:15:11;;;;;;;35.67;20.88;;;;;0.00;99793.00;;;;5072765;28;20048;-69
2024/01/12 06:17:37;;;;;;;41.35;22.73;;;;;0.00;99790.00;;;;5074339;28;20070;-70
2024/01/12 06:20:05;;;;;;;33.25;21.42;;;;;0.00;99787.00;;;;5074055;28;20040;-70
2024/01/12 06:22:31;;;;;;;37.90;21.58;;;;;-0.10;99790.00;;;;5074211;28;20044;-69
2024/01/12 06:24:58;;;;;;;36.10;20.63;;;;;-0.20;99794.00;;;;5073946;28;20049;-70
2024/01/12 06:27:25;;;;;;;40.20;22.20;;;;;-0.20;99795.00;;;;5073874;28;20048;-69
2024/01/12 06:29:51;;;;;;;37.47;21.75;;;;;-0.20;99789.00;;;;5072599;28;20075;-70
2024/01/12 06:32:18;;;;;;;43.40;22.30;;;;;-0.20;99797.00;;;;5073940;28;20040;-70
2024/01/12 06:34:45;;;;;;;37.40;22.38;;;;;-0.10;99799.00;;;;5072073;28;20044;-70
2024/01/12 06:37:11;;;;;;;36.03;21.38;;;;;-0.10;99790.00;;;;5073819;28;20045;-70
2024/01/12 06:39:39;;;;;;;36.80;22.73;;;;;-0.10;99806.00;;;;5073804;28;20119;-68
2024/01/12 06:42:06;;;;;;;40.33;22.67;;;;;-0.20;99795.00;;;;5073511;28;20059;-68
2024/01/12 06:44:39;;;;;;;40.63;22.92;;;;;-0.20;99795.00;;;;5073483;28;20044;-69
2024/01/12 06:47:07;;;;;;;38.15;22.30;;;;;-0.20;99789.00;;;;5072252;28;20040;-69
2024/01/12 06:49:34;;;;;;;37.30;21.30;;;;;-0.20;99783.00;;;;5072193;28;20128;-69
2024/01/12 06:52:01;;;;;;;41.17;21.40;;;;;-0.20;99795.00;;;;5073498;28;20040;-69
2024/01/12 06:54:27;;;;;;;37.15;21.63;;;;;-0.10;99790.00;;;;5072954;28;20075;-69
2024/01/12 06:56:56;;;;;;;47.95;23.40;;;;;0.00;99789.00;;;;5073424;28;20068;-69
2024/01/12 06:59:23;;;;;;;45.08;23.15;;;;;0.00;99785.00;;;;5072480;28;20055;-69
2024/01/12 07:01:50;;;;;;;38.40;21.75;;;;;0.10;99793.00;;;;5072499;28;20096;-69
2024/01/12 07:04:16;;;;;;;40.08;22.50;;;;;0.10;99804.00;;;;5071654;28;20611;-69
2024/01/12 07:06:43;;;;;;;45.60;23.13;;;;;0.10;99813.00;;;;5073040;28;20048;-69
2024/01/12 07:09:14;;;;;;;37.72;22.15;;;;;0.10;99818.00;;;;5072244;28;20401;-69
2024/01/12 07:11:41;;;;;;;42.05;22.35;;;;;0.10;99817.00;;;;5071740;28;20059;-70
2024/01/12 07:14:09;;;;;;;40.83;22.13;;;;;0.10;99830.00;;;;5072673;28;20045;-70
2024/01/12 07:16:37;;;;;;;39.55;22.40;;;;;0.10;99829.00;;;;5071864;28;20045;-70
2024/01/12 07:19:04;;;;;;;40.58;21.92;;;;;0.10;99832.00;;;;5072956;28;20083;-70
2024/01/12 07:21:31;;;;;;;41.88;22.15;;;;;0.20;99829.00;;;;5071642;28;20098;-70
2024/01/12 07:23:58;;;;;;;40.22;22.42;;;;;0.20;99844.00;;;;5072753;28;20519;-70
2024/01/12 07:26:25;;;;;;;43.58;22.63;;;;;0.20;99850.00;;;;5072767;28;20101;-70
2024/01/12 07:28:52;;;;;;;38.50;21.77;;;;;0.30;99842.00;;;;5072732;28;20041;-69
2024/01/12 07:31:19;;;;;;;44.03;22.00;;;;;0.30;99836.00;;;;5072930;28;20458;-70
2024/01/12 07:33:45;;;;;;;43.08;21.65;;;;;0.40;99843.00;;;;5072516;28;20401;-70
2024/01/12 07:36:12;;;;;;;38.53;21.02;;;;;0.30;99841.00;;;;5072673;28;20041;-70
2024/01/12 07:38:39;;;;;;;40.15;22.58;;;;;0.40;99837.00;;;;5072515;28;20037;-70
2024/01/12 07:41:05;;;;;;;41.15;21.85;;;;;0.40;99836.00;;;;5072447;28;20048;-70
2024/01/12 07:43:32;;;;;;;44.30;24.13;;;;;0.40;99846.00;;;;5071265;28;20040;-70
2024/01/12 07:45:59;;;;;;;38.90;21.73;;;;;0.40;99858.00;;;;5071707;28;20117;-70
2024/01/12 07:48:26;;;;;;;40.78;22.95;;;;;0.40;99855.00;;;;5072609;28;20073;-70
2024/01/12 07:50:52;;;;;;;43.90;23.02;;;;;0.40;99859.00;;;;5072560;28;20512;-70
2024/01/12 07:53:21;;;;;;;43.20;23.52;;;;;0.50;99863.00;;;;5072297;28;20051;-70
2024/01/12 07:55:49;;;;;;;42.97;23.73;;;;;0.50;99857.00;;;;5072466;28;20154;-70
2024/01/12 07:58:18;;;;;;;44.28;23.20;;;;;0.50;99857.00;;;;5072570;28;20494;-70
2024/01/12 08:00:45;;;;;;;41.65;22.67;;;;;0.50;99854.00;;;;5072831;28;20123;-70
2024/01/12 08:03:12;;;;;;;38.25;22.02;;;;;0.40;99851.00;;;;5054731;28;20053;-70
2024/01/12 08:05:39;;;;;;;46.58;23.10;;;;;0.40;99844.00;;;;5072395;28;20044;-70
2024/01/12 08:08:06;;;;;;;44.42;22.13;;;;;0.40;99860.00;;;;5071687;28;20041;-70
2024/01/12 08:10:32;;;;;;;42.28;23.15;;;;;0.40;99864.00;;;;5071898;28;20045;-70
2024/01/12 08:12:59;;;;;;;42.28;24.27;;;;;0.50;99870.00;;;;5072876;28;20135;-66
2024/01/12 08:15:25;;;;;;;41.92;23.17;;;;;0.60;99870.00;;;;5072917;28;20051;-68
2024/01/12 08:17:52;;;;;;;41.83;22.77;;;;;0.70;99862.00;;;;5071622;28;20044;-68
2024/01/12 08:20:18;;;;;;;37.78;22.98;;;;;0.80;99864.00;;;;5071307;28;20050;-68
2024/01/12 08:22:45;;;;;;;40.15;21.65;;;;;0.80;99865.00;;;;5072352;28;20047;-68
2024/01/12 08:25:12;;;;;;;43.70;23.98;;;;;0.80;99879.00;;;;5069950;28;20044;-67
2024/01/12 08:27:38;;;;;;;41.47;23.75;;;;;0.80;99881.00;;;;5072136;28;20178;-67
2024/01/12 08:30:07;;;;;;;37.80;21.60;;;;;0.80;99880.00;;;;5071134;28;20048;-68
2024/01/12 08:32:34;;;;;;;40.45;23.35;;;;;0.90;99888.00;;;;5072166;28;20115;-67
2024/01/12 08:35:01;;;;;;;42.65;22.50;;;;;1.00;99888.00;;;;5071606;28;20045;-68
2024/01/12 08:37:28;;;;;;;40.85;22.20;;;;;1.10;99889.00;;;;5072355;28;20045;-68
2024/01/12 08:39:54;;;;;;;37.85;22.05;;;;;1.10;99892.00;;;;5071782;28;20040;-68
2024/01/12 08:42:21;;;;;;;50.03;21.70;;;;;1.00;99887.00;;;;5072003;28;20051;-69
2024/01/12 08:44:47;;;;;;;33.80;20.77;;;;;1.00;99884.00;;;;5071589;28;20055;-68
2024/01/12 08:47:14;;;;;;;36.63;20.10;;;;;1.00;99887.00;;;;5070721;28;20045;-67
2024/01/12 08:49:40;;;;;;;39.35;20.98;;;;;0.90;99884.00;;;;5070486;28;20150;-67
2024/01/12 08:52:07;;;;;;;39.53;22.40;;;;;0.80;99881.00;;;;5071877;28;20048;-67
2024/01/12 08:54:34;;;;;;;34.60;19.00;;;;;0.90;99891.00;;;;5074577;28;20048;-67
2024/01/12 08:57:00;;;;;;;37.95;21.05;;;;;1.10;99885.00;;;;5074145;28;20478;-66
2024/01/12 08:59:28;;;;;;;37.05;20.58;;;;;1.10;99892.00;;;;5075469;28;20043;-67
2024/01/12 09:01:56;;;;;;;35.75;21.45;;;;;1.20;99893.00;;;;5074349;28;20041;-67
2024/01/12 09:04:23;;;;;;;36.80;20.20;;;;;1.20;99893.00;;;;5074956;28;20481;-66
2024/01/12 09:06:50;;;;;;;34.50;19.80;;;;;1.20;99882.00;;;;5075382;28;20051;-67
2024/01/12 09:09:17;;;;;;;31.45;18.38;;;;;1.20;99889.00;;;;5075232;28;20040;-67
2024/01/12 09:11:44;;;;;;;33.05;19.38;;;;;1.10;99894.00;;;;5073980;28;20064;-67
2024/01/12 09:14:11;;;;;;;29.10;17.52;;;;;1.00;99898.00;;;;5074686;28;20041;-66
2024/01/12 09:16:37;;;;;;;32.47;17.67;;;;;0.90;99885.00;;;;5057443;28;20139;-66
2024/01/12 09:19:04;;;;;;;25.17;15.77;;;;;1.10;99889.00;;;;5074801;28;20094;-66
2024/01/12 09:21:31;;;;;;;24.58;14.15;;;;;1.20;99876.00;;;;5075296;28;20041;-66
2024/01/12 09:23:57;;;;;;;24.05;14.50;;;;;1.30;99885.00;;;;5074745;28;20047;-66
2024/01/12 09:26:25;;;;;;;28.45;16.00;;;;;1.30;99882.00;;;;5075013;28;20040;-65
2024/01/12 09:28:51;;;;;;;26.00;15.70;;;;;1.50;99889.00;;;;5075170;28;20055;-66
2024/01/12 09:31:18;;;;;;;27.05;15.57;;;;;1.50;99891.00;;;;5074888;28;20045;-66
2024/01/12 09:33:44;;;;;;;21.33;14.00;;;;;1.50;99888.00;;;;5074299;28;20524;-66
2024/01/12 09:36:11;;;;;;;21.27;12.35;;;;;1.40;99884.00;;;;5074988;28;20102;-66
2024/01/12 09:38:38;;;;;;;21.38;12.55;;;;;1.50;99893.00;;;;5075183;28;20051;-68
2024/01/12 09:41:08;;;;;;;23.25;13.25;;;;;1.50;99893.00;;;;5075157;28;20048;-67
2024/01/12 09:43:35;;;;;;;19.15;12.13;;;;;1.40;99902.00;;;;5074498;28;20094;-68
2024/01/12 09:46:07;;;;;;;19.10;12.63;;;;;1.30;99902.00;;;;5073574;28;20044;-67
2024/01/12 09:48:33;;;;;;;22.70;13.07;;;;;1.20;99894.00;;;;5074715;28;20050;-68
2024/01/12 09:51:01;;;;;;;21.25;13.52;;;;;1.10;99893.00;;;;5074897;28;20390;-67
2024/01/12 09:53:28;;;;;;;22.70;12.85;;;;;1.00;99890.00;;;;5074229;28;20102;-68
2024/01/12 09:55:55;;;;;;;22.20;13.25;;;;;1.00;99887.00;;;;5074834;28;20050;-67
2024/01/12 09:58:38;;;;;;;19.13;13.13;;;;;0.80;99888.00;;;;5074928;28;20563;-67
2024/01/12 10:01:05;;;;;;;20.73;12.18;;;;;0.90;99898.00;;;;5074620;28;20509;-67
2024/01/12 10:03:33;;;;;;;18.27;11.80;;;;;0.80;99901.00;;;;5072319;28;20417;-69
2024/01/12 10:05:59;;;;;;;22.85;13.18;;;;;0.80;99891.00;;;;5074264;28;20040;-67
2024/01/12 10:08:36;;;;;;;21.75;13.23;;;;;1.00;99883.00;;;;5074431;28;20060;-67
2024/01/12 10:11:03;;;;;;;19.73;12.30;;;;;1.10;99886.00;;;;5073249;28;20048;-67
2024/01/12 10:13:29;;;;;;;18.20;11.77;;;;;1.10;99887.00;;;;5073985;28;20044;-67
2024/01/12 10:15:56;;;;;;;19.38;11.52;;;;;1.10;99900.00;;;;5074719;28;20044;-66
2024/01/12 10:18:24;;;;;;;17.63;10.18;;;;;1.00;99890.00;;;;5073164;28;20048;-67
2024/01/12 10:20:51;;;;;;;13.73;8.65;;;;;0.90;99901.00;;;;5074258;28;20040;-67
2024/01/12 10:23:20;;;;;;;17.58;11.15;;;;;0.90;99902.00;;;;5080719;28;20060;-67
2024/01/12 10:26:01;;;;;;;15.38;9.00;;;;;1.00;99891.00;;;;5073577;28;20075;-67
2024/01/12 10:28:29;;;;;;;11.95;8.15;;;;;1.00;99892.00;;;;5056539;28;20044;-67
2024/01/12 10:30:56;;;;;;;12.35;9.05;;;;;1.00;99893.00;;;;5074676;28;20037;-68
2024/01/12 10:33:23;;;;;;;12.93;8.85;;;;;1.00;99886.00;;;;5074884;28;20052;-66
2024/01/12 10:36:03;;;;;;;13.68;8.57;;;;;1.00;99880.00;;;;5075991;28;20114;-66
2024/01/12 10:38:31;;;;;;;12.07;8.18;;;;;1.00;99884.00;;;;5092499;28;20115;-66
2024/01/12 10:40:59;;;;;;;13.07;7.28;;;;;1.00;99888.00;;;;5096546;28;20053;-67
2024/01/12 10:43:28;;;;;;;11.20;7.35;;;;;1.00;99878.00;;;;5096489;28;20033;-67
2024/01/12 10:45:58;;;;;;;13.93;7.47;;;;;1.00;99879.00;;;;5097089;28;20071;-67
2024/01/12 10:48:29;;;;;;;10.65;6.75;;;;;1.00;99871.00;;;;5096497;28;20055;-67
2024/01/12 10:51:00;;;;;;;11.38;7.95;;;;;1.10;99869.00;;;;5097688;28;20092;-67
2024/01/12 10:53:36;;;;;;;37.28;22.63;;;;;1.20;99877.00;;;;5096254;28;20070;-67
2024/01/12 10:56:03;;;;;;;16.85;9.68;;;;;1.10;99884.00;;;;5088377;28;20048;-67
2024/01/12 10:58:31;;;;;;;26.95;16.70;;;;;1.00;99882.00;;;;5073268;28;20049;-66
2024/01/12 11:00:58;;;;;;;19.35;13.77;;;;;1.10;99883.00;;;;5073377;28;20131;-67
2024/01/12 11:03:26;;;;;;;12.38;8.60;;;;;1.10;99884.00;;;;5072787;28;20102;-67
2024/01/12 11:05:54;;;;;;;12.95;8.82;;;;;1.30;99869.00;;;;5072121;28;20044;-67
2024/01/12 11:08:22;;;;;;;12.63;7.95;;;;;1.50;99872.00;;;;5073133;28;20123;-67
2024/01/12 11:10:55;;;;;;;13.63;7.45;;;;;1.60;99869.00;;;;5072948;28;20052;-67
2024/01/12 11:13:22;;;;;;;9.40;6.53;;;;;1.70;99870.00;;;;5072962;28;20068;-67
2024/01/12 11:15:51;;;;;;;9.23;6.75;;;;;1.60;99868.00;;;;5072000;28;20040;-67
2024/01/12 11:18:19;;;;;;;9.13;6.72;;;;;1.40;99857.00;;;;5072879;28;20060;-67
2024/01/12 11:20:46;;;;;;;11.10;6.78;;;;;1.30;99865.00;;;;5072705;28;20062;-67
2024/01/12 11:23:13;;;;;;;9.23;6.75;;;;;1.20;99871.00;;;;5072751;28;20044;-67
2024/01/12 11:25:43;;;;;;;9.55;6.80;;;;;1.30;99864.00;;;;5070873;28;20041;-67
2024/01/12 11:28:09;;;;;;;11.68;7.75;;;;;1.30;99865.00;;;;5055309;28;20066;-66
2024/01/12 11:30:41;;;;;;;11.15;6.63;;;;;1.40;99855.00;;;;5072652;28;20044;-66
2024/01/12 11:33:08;;;;;;;11.07;7.05;;;;;1.50;99872.00;;;;5072536;28;20105;-66
2024/01/12 11:35:37;;;;;;;9.80;6.80;;;;;1.40;99860.00;;;;5071978;28;20047;-66
2024/01/12 11:38:10;;;;;;;16.25;9.35;;;;;1.40;99856.00;;;;5072559;28;20036;-66
2024/01/12 11:40:37;;;;;;;10.13;6.53;;;;;1.50;99847.00;;;;5072463;28;20162;-67
2024/01/12 11:43:05;;;;;;;12.75;7.35;;;;;1.50;99862.00;;;;5072493;28;20048;-67
2024/01/12 11:45:33;;;;;;;9.18;5.85;;;;;1.40;99855.00;;;;5071886;28;20090;-67
2024/01/12 11:48:03;;;;;;;8.50;5.72;;;;;1.40;99848.00;;;;5072345;28;20565;-68
2024/01/12 11:50:31;;;;;;;7.78;5.20;;;;;1.40;99842.00;;;;5072446;28;20540;-68
2024/01/12 11:53:00;;;;;;;8.93;6.05;;;;;1.40;99843.00;;;;5072304;28;20045;-67
2024/01/12 11:55:27;;;;;;;14.93;8.23;;;;;1.40;99839.00;;;;5071573;28;20043;-67
2024/01/12 11:57:54;;;;;;;14.98;8.02;;;;;1.50;99834.00;;;;5070983;28;20405;-67
2024/01/12 12:00:23;;;;;;;8.48;5.80;;;;;1.60;99837.00;;;;5072225;28;20041;-67
2024/01/12 12:02:50;;;;;;;8.20;5.88;;;;;1.80;99826.00;;;;5072113;28;20508;-67
2024/01/12 12:05:22;;;;;;;8.68;5.80;;;;;2.00;99836.00;;;;5071412;28;20112;-67